CheckWX is a tool to help pilots better visualize weather data.  It is not intended as a substitute for an official pre-flight weather briefing.

16:10:56 UTC

DAUI TAF
In Salah Airport
In Salah, Algeria
TAF DAUI 301700Z 3018/3118 24006KT 8000 NSC

May-30@
18:00 UTC

May-30 @ 18:00 UTC

May-31@
18:00 UTC

May-31 @ 18:00 UTC

TAF DAUI 301700Z 3018/3118 24006KT 8000 NSC
Wind
  • 240° at 6 KTS
Cloud Levels
  • No significant clouds